createdAt,value
2022-11-06T00:01:26.266Z,1.98
2022-11-06T00:03:54.012Z,3.33
2022-11-06T00:06:39.864Z,2.05
2022-11-06T00:09:09.319Z,1.70
2022-11-06T00:11:36.446Z,5.43
2022-11-06T00:14:04.299Z,4.63
2022-11-06T00:16:31.421Z,3.13
2022-11-06T00:19:02.841Z,2.03
2022-11-06T00:21:31.055Z,3.30
2022-11-06T00:24:00.160Z,2.17
2022-11-06T00:26:28.752Z,1.27
2022-11-06T00:28:56.339Z,1.88
2022-11-06T00:31:29.434Z,2.17
2022-11-06T00:33:58.212Z,3.97
2022-11-06T00:36:26.477Z,2.45
2022-11-06T00:38:57.082Z,2.33
2022-11-06T00:41:24.795Z,2.70
2022-11-06T00:43:56.882Z,1.35
2022-11-06T00:46:24.369Z,1.50
2022-11-06T00:48:52.609Z,1.55
2022-11-06T00:51:22.152Z,1.40
2022-11-06T00:53:53.315Z,1.83
2022-11-06T00:56:20.576Z,1.33
2022-11-06T00:58:48.190Z,2.38
2022-11-06T01:01:23.759Z,2.13
2022-11-06T01:04:12.451Z,4.03
2022-11-06T01:06:42.195Z,1.77
2022-11-06T01:09:11.227Z,2.47
2022-11-06T01:12:11.054Z,2.03
2022-11-06T01:14:28.354Z,1.48
2022-11-06T01:16:55.250Z,1.33
2022-11-06T01:19:22.875Z,1.02
2022-11-06T01:21:52.845Z,1.30
2022-11-06T01:24:23.376Z,0.85
2022-11-06T01:27:19.895Z,2.40
2022-11-06T01:29:37.991Z,1.00
2022-11-06T01:32:05.193Z,0.63
2022-11-06T01:34:32.141Z,0.82
2022-11-06T01:36:58.934Z,0.65
2022-11-06T01:39:25.746Z,0.82
2022-11-06T01:41:53.844Z,0.38
2022-11-06T01:44:35.464Z,0.55
2022-11-06T01:47:04.696Z,0.50
2022-11-06T01:49:37.170Z,0.35
2022-11-06T01:52:08.929Z,0.50
2022-11-06T01:54:38.331Z,0.32
2022-11-06T01:57:06.274Z,0.30
2022-11-06T01:59:41.764Z,0.45
2022-11-06T02:02:08.751Z,0.50
2022-11-06T02:04:43.048Z,0.47
2022-11-06T02:07:10.664Z,0.20
2022-11-06T02:09:37.427Z,0.57
2022-11-06T02:12:23.014Z,0.77
2022-11-06T02:15:05.893Z,0.75
2022-11-06T02:18:03.458Z,0.30
2022-11-06T02:20:53.467Z,0.32
2022-11-06T02:23:45.030Z,0.30
2022-11-06T02:26:24.322Z,0.47
2022-11-06T02:28:56.231Z,0.35
2022-11-06T02:31:29.635Z,0.47
2022-11-06T02:34:02.078Z,0.40
2022-11-06T02:36:46.645Z,0.50
2022-11-06T02:39:18.921Z,0.57
2022-11-06T02:41:47.359Z,0.30
2022-11-06T02:44:24.435Z,0.85
2022-11-06T02:46:54.374Z,1.70
2022-11-06T02:49:37.307Z,0.98
2022-11-06T02:52:29.767Z,1.10
2022-11-06T02:55:09.773Z,0.40
2022-11-06T02:57:40.089Z,0.60
2022-11-06T03:00:11.664Z,0.43
2022-11-06T03:02:45.759Z,0.50
2022-11-06T03:05:23.188Z,0.45
2022-11-06T03:08:03.576Z,0.40
2022-11-06T03:10:36.174Z,0.30
2022-11-06T03:13:20.582Z,0.50
2022-11-06T03:15:58.534Z,0.43
2022-11-06T03:18:32.827Z,1.08
2022-11-06T03:21:11.553Z,0.43
2022-11-06T03:23:48.495Z,0.32
2022-11-06T03:26:21.518Z,0.40
2022-11-06T03:28:53.266Z,0.40
2022-11-06T03:31:28.222Z,0.30
2022-11-06T03:34:01.912Z,0.30
2022-11-06T03:36:42.061Z,0.40
2022-11-06T03:39:15.507Z,0.50
2022-11-06T03:41:44.475Z,0.20
2022-11-06T03:44:14.767Z,0.73
2022-11-06T03:46:46.656Z,0.47
2022-11-06T03:49:18.438Z,0.30
2022-11-06T03:51:51.255Z,0.82
2022-11-06T03:54:26.615Z,0.40
2022-11-06T03:56:59.537Z,0.85
2022-11-06T03:59:31.953Z,0.50
2022-11-06T04:02:00.356Z,0.40
2022-11-06T04:04:51.051Z,0.40
2022-11-06T04:07:22.274Z,0.40
2022-11-06T04:10:17.560Z,0.65
2022-11-06T04:13:25.147Z,0.40
2022-11-06T04:15:53.917Z,0.35
2022-11-06T04:18:20.866Z,1.98
2022-11-06T04:21:18.596Z,0.40
2022-11-06T04:24:15.048Z,0.60
2022-11-06T04:27:17.021Z,0.80
2022-11-06T04:29:58.358Z,1.17
2022-11-06T04:32:50.020Z,2.03
2022-11-06T04:35:45.688Z,1.15
2022-11-06T04:38:27.834Z,0.57
2022-11-06T04:40:54.607Z,0.40
2022-11-06T04:43:45.849Z,0.57
2022-11-06T04:46:21.704Z,0.52
2022-11-06T04:48:49.498Z,0.73
2022-11-06T04:51:22.617Z,1.08
2022-11-06T04:53:51.471Z,1.00
2022-11-06T04:56:29.019Z,0.35
2022-11-06T04:58:56.252Z,0.90
2022-11-06T05:01:23.579Z,0.47
2022-11-06T05:03:50.495Z,0.50
2022-11-06T05:06:17.361Z,0.43
2022-11-06T05:08:44.436Z,0.60
2022-11-06T05:11:11.228Z,0.32
2022-11-06T05:13:38.420Z,0.47
2022-11-06T05:16:06.300Z,0.43
2022-11-06T05:18:33.507Z,0.40
2022-11-06T05:21:20.376Z,0.35
2022-11-06T05:23:47.496Z,0.40
2022-11-06T05:26:14.354Z,0.40
2022-11-06T05:28:41.220Z,0.45
2022-11-06T05:31:08.033Z,0.52
2022-11-06T05:33:34.926Z,1.13
2022-11-06T05:36:03.491Z,0.95
2022-11-06T05:38:31.060Z,0.50
2022-11-06T05:40:58.040Z,1.15
2022-11-06T05:43:24.992Z,0.90
2022-11-06T05:45:51.796Z,0.55
2022-11-06T05:48:18.578Z,0.30
2022-11-06T05:50:45.393Z,0.40
2022-11-06T05:53:12.126Z,0.60
2022-11-06T05:55:38.900Z,0.50
2022-11-06T05:58:05.771Z,0.65
2022-11-06T06:00:32.694Z,0.40
2022-11-06T06:02:59.621Z,0.73
2022-11-06T06:05:26.483Z,0.40
2022-11-06T06:07:53.232Z,0.52
2022-11-06T06:10:19.988Z,0.43
2022-11-06T06:12:48.861Z,0.35
2022-11-06T06:15:16.029Z,0.80
2022-11-06T06:17:42.837Z,0.55
2022-11-06T06:20:10.471Z,0.30
2022-11-06T06:22:37.218Z,0.30
2022-11-06T06:25:04.430Z,0.65
2022-11-06T06:27:31.743Z,0.40
2022-11-06T06:29:58.632Z,0.30
2022-11-06T06:32:25.515Z,0.40
2022-11-06T06:34:52.313Z,0.40
2022-11-06T06:37:20.155Z,0.30
2022-11-06T06:39:47.470Z,0.40
2022-11-06T06:42:14.425Z,0.73
2022-11-06T06:44:41.187Z,0.82
2022-11-06T06:47:07.929Z,0.40
2022-11-06T06:49:35.808Z,0.47
2022-11-06T06:52:02.661Z,0.68
2022-11-06T06:54:29.433Z,0.52
2022-11-06T06:56:56.251Z,0.40
2022-11-06T06:59:23.063Z,0.85
2022-11-06T07:01:49.883Z,0.38
2022-11-06T07:04:16.768Z,0.22
2022-11-06T07:06:43.508Z,0.57
2022-11-06T07:09:10.367Z,0.30
2022-11-06T07:11:37.176Z,0.35
2022-11-06T07:14:04.124Z,0.95
2022-11-06T07:16:32.435Z,0.30
2022-11-06T07:18:59.429Z,0.40
2022-11-06T07:21:26.181Z,0.30
2022-11-06T07:23:52.987Z,0.60
2022-11-06T07:26:19.831Z,0.40
2022-11-06T07:28:46.751Z,0.38
2022-11-06T07:31:13.623Z,0.52
2022-11-06T07:33:40.912Z,1.38
2022-11-06T07:36:12.994Z,0.68
2022-11-06T07:38:41.880Z,0.68
2022-11-06T07:41:10.935Z,0.57
2022-11-06T07:43:38.518Z,0.40
2022-11-06T07:46:08.218Z,0.80
2022-11-06T07:48:35.086Z,0.63
2022-11-06T07:51:07.770Z,0.35
2022-11-06T07:53:34.652Z,0.50
2022-11-06T07:56:01.575Z,0.40
2022-11-06T07:58:28.703Z,0.30
2022-11-06T08:00:57.603Z,0.63
2022-11-06T08:03:25.832Z,0.35
2022-11-06T08:05:52.692Z,0.40
2022-11-06T08:08:19.445Z,0.70
2022-11-06T08:10:47.904Z,0.40
2022-11-06T08:13:16.552Z,0.50
2022-11-06T08:15:43.623Z,1.25
2022-11-06T08:18:11.907Z,1.42
2022-11-06T08:20:39.879Z,1.30
2022-11-06T08:23:10.465Z,1.35
2022-11-06T08:25:38.126Z,1.17
2022-11-06T08:28:05.253Z,1.77
2022-11-06T08:30:32.437Z,2.58
2022-11-06T08:33:04.850Z,1.27
2022-11-06T08:35:32.298Z,1.35
2022-11-06T08:37:59.056Z,1.00
2022-11-06T08:40:30.601Z,1.67
2022-11-06T08:43:02.316Z,1.20
2022-11-06T08:45:29.961Z,1.00
2022-11-06T08:48:01.747Z,2.50
2022-11-06T08:50:29.167Z,1.63
2022-11-06T08:53:04.454Z,1.25
2022-11-06T08:55:32.225Z,1.00
2022-11-06T08:57:59.684Z,1.08
2022-11-06T09:00:27.426Z,0.82
2022-11-06T09:03:01.641Z,2.80
2022-11-06T09:05:29.757Z,1.75
2022-11-06T09:07:57.769Z,1.50
2022-11-06T09:10:25.706Z,2.08
2022-11-06T09:12:52.737Z,1.85
2022-11-06T09:15:22.422Z,3.35
2022-11-06T09:17:50.936Z,1.50
2022-11-06T09:20:19.408Z,1.65
2022-11-06T09:22:46.789Z,3.22
2022-11-06T09:25:14.225Z,2.85
2022-11-06T09:27:45.746Z,3.95
2022-11-06T09:30:15.196Z,2.67
2022-11-06T09:32:50.303Z,3.28
2022-11-06T09:35:17.556Z,2.70
2022-11-06T09:37:44.779Z,2.72
2022-11-06T09:40:24.659Z,2.80
2022-11-06T09:43:12.180Z,3.00
2022-11-06T09:45:41.133Z,1.30
2022-11-06T09:48:11.001Z,1.75
2022-11-06T09:50:46.944Z,1.63
2022-11-06T09:53:20.510Z,1.10
2022-11-06T09:55:49.395Z,0.95
2022-11-06T09:58:20.189Z,0.90
2022-11-06T10:00:48.357Z,1.00
2022-11-06T10:03:23.130Z,1.13
2022-11-06T10:05:53.113Z,1.02
2022-11-06T10:08:29.345Z,2.53
2022-11-06T10:11:14.475Z,1.73
2022-11-06T10:14:02.653Z,2.10
2022-11-06T10:17:26.631Z,1.92
2022-11-06T10:20:26.760Z,1.70
2022-11-06T10:22:56.780Z,1.45
2022-11-06T10:25:37.763Z,1.30
2022-11-06T10:28:19.196Z,2.33
2022-11-06T10:31:11.298Z,1.17
2022-11-06T10:33:54.843Z,1.67
2022-11-06T10:36:50.053Z,1.17
2022-11-06T10:39:24.958Z,1.60
2022-11-06T10:42:00.272Z,1.83
2022-11-06T10:44:56.885Z,2.42
2022-11-06T10:47:29.165Z,2.25
2022-11-06T10:49:59.096Z,3.80
2022-11-06T10:52:39.777Z,4.43
2022-11-06T10:55:27.725Z,2.90
2022-11-06T10:58:06.620Z,2.88
2022-11-06T11:00:34.396Z,2.92
2022-11-06T11:03:07.660Z,2.80
2022-11-06T11:05:41.204Z,2.70
2022-11-06T11:08:30.434Z,3.67
2022-11-06T11:11:15.515Z,3.13
2022-11-06T11:13:48.833Z,2.58
2022-11-06T11:16:26.149Z,3.28
2022-11-06T11:18:53.065Z,2.10
2022-11-06T11:21:19.748Z,2.50
2022-11-06T11:24:08.438Z,2.38
2022-11-06T11:26:46.824Z,4.32
2022-11-06T11:29:29.175Z,2.90
2022-11-06T11:32:05.788Z,2.13
2022-11-06T11:34:35.422Z,3.38
2022-11-06T11:37:05.164Z,2.90
2022-11-06T11:39:38.010Z,3.08
2022-11-06T11:42:24.318Z,2.97
2022-11-06T11:45:09.938Z,2.60
2022-11-06T11:47:38.714Z,3.60
2022-11-06T11:50:31.813Z,2.92
2022-11-06T11:53:13.703Z,2.33
2022-11-06T11:55:44.869Z,3.58
2022-11-06T11:58:24.829Z,3.42
2022-11-06T12:00:59.155Z,4.05
2022-11-06T12:03:34.190Z,4.10
2022-11-06T12:06:11.473Z,4.15
2022-11-06T12:08:41.712Z,3.83
2022-11-06T12:11:13.027Z,5.03
2022-11-06T12:13:39.815Z,3.92
2022-11-06T12:16:18.561Z,5.15
2022-11-06T12:18:56.018Z,2.72
2022-11-06T12:21:35.484Z,3.03
2022-11-06T12:24:12.272Z,3.45
2022-11-06T12:26:57.520Z,2.45
2022-11-06T12:29:40.088Z,4.22
2022-11-06T12:32:18.944Z,2.60
2022-11-06T12:34:52.751Z,2.13
2022-11-06T12:37:27.019Z,2.25
2022-11-06T12:40:25.634Z,2.05
2022-11-06T12:43:06.158Z,4.45
2022-11-06T12:45:47.915Z,4.85
2022-11-06T12:48:53.656Z,1.90
2022-11-06T12:51:39.065Z,1.60
2022-11-06T12:54:21.466Z,3.03
2022-11-06T12:56:57.950Z,1.25
2022-11-06T12:59:43.073Z,1.75
2022-11-06T13:02:47.676Z,1.73
2022-11-06T13:05:23.292Z,1.55
2022-11-06T13:08:05.482Z,1.83
2022-11-06T13:11:09.846Z,1.70
2022-11-06T13:13:58.727Z,1.65
2022-11-06T13:16:52.928Z,1.95
2022-11-06T13:19:38.618Z,2.05
2022-11-06T13:22:20.423Z,1.90
2022-11-06T13:25:16.811Z,1.77
2022-11-06T13:27:58.534Z,1.42
2022-11-06T13:30:26.521Z,1.67
2022-11-06T13:33:08.286Z,2.00
2022-11-06T13:35:39.144Z,2.05
2022-11-06T13:38:09.778Z,2.00
2022-11-06T13:40:52.406Z,1.90
2022-11-06T13:43:27.923Z,2.67
2022-11-06T13:46:10.758Z,2.63
2022-11-06T13:48:56.386Z,2.30
2022-11-06T13:51:51.207Z,2.80
2022-11-06T13:54:21.173Z,3.03
2022-11-06T13:56:57.325Z,2.88
2022-11-06T13:59:50.342Z,2.15
2022-11-06T14:02:33.524Z,2.67
2022-11-06T14:05:46.893Z,2.78
2022-11-06T14:08:18.689Z,2.28
2022-11-06T14:10:53.800Z,2.33
2022-11-06T14:13:27.936Z,2.75
2022-11-06T14:16:04.006Z,2.65
2022-11-06T14:18:31.728Z,1.55
2022-11-06T14:21:36.686Z,2.88
2022-11-06T14:24:15.213Z,2.45
2022-11-06T14:26:47.585Z,2.20
2022-11-06T14:29:34.755Z,1.50
2022-11-06T14:32:06.614Z,1.80
2022-11-06T14:34:35.307Z,1.90
2022-11-06T14:37:20.187Z,1.63
2022-11-06T14:39:55.702Z,1.40
2022-11-06T14:42:36.000Z,2.17
2022-11-06T14:45:12.055Z,2.00
2022-11-06T14:47:53.154Z,1.23
2022-11-06T14:50:19.926Z,1.13
2022-11-06T14:52:51.409Z,1.13
2022-11-06T14:55:43.072Z,1.35
2022-11-06T14:58:23.345Z,1.08
2022-11-06T15:00:54.405Z,1.15
2022-11-06T15:04:13.889Z,1.00
2022-11-06T15:06:47.289Z,1.38
2022-11-06T15:09:24.095Z,0.95
2022-11-06T15:11:55.628Z,1.35
2022-11-06T15:14:22.360Z,1.58
2022-11-06T15:17:00.380Z,0.63
2022-11-06T15:19:34.900Z,0.95
2022-11-06T15:22:26.113Z,0.80
2022-11-06T15:25:11.688Z,1.10
2022-11-06T15:27:47.732Z,1.27
2022-11-06T15:30:17.670Z,1.23
2022-11-06T15:32:46.447Z,1.10
2022-11-06T15:35:23.468Z,1.77
2022-11-06T15:38:07.308Z,1.30
2022-11-06T15:40:39.335Z,1.30
2022-11-06T15:43:31.045Z,1.65
2022-11-06T15:46:17.918Z,1.70
2022-11-06T15:48:45.784Z,1.70
2022-11-06T15:51:28.442Z,1.25
2022-11-06T15:53:55.765Z,1.20
2022-11-06T15:56:31.266Z,0.95
2022-11-06T15:59:17.055Z,1.20
2022-11-06T16:01:48.840Z,1.10
2022-11-06T16:04:20.623Z,1.20
2022-11-06T16:06:48.078Z,1.00
2022-11-06T16:09:25.140Z,1.65
2022-11-06T16:11:53.140Z,0.80
2022-11-06T16:14:21.043Z,1.75
2022-11-06T16:16:52.492Z,0.90
2022-11-06T16:19:25.817Z,1.40
2022-11-06T16:22:07.650Z,1.10
2022-11-06T16:24:45.565Z,1.10
2022-11-06T16:27:14.263Z,1.38
2022-11-06T16:29:49.069Z,1.45
2022-11-06T16:32:20.470Z,1.20
2022-11-06T16:34:48.419Z,1.42
2022-11-06T16:37:18.327Z,1.50
2022-11-06T16:39:50.316Z,1.38
2022-11-06T16:42:27.029Z,1.20
2022-11-06T16:45:17.448Z,0.93
2022-11-06T16:48:06.772Z,0.77
2022-11-06T16:50:48.808Z,0.75
2022-11-06T16:53:29.915Z,0.70
2022-11-06T16:56:06.658Z,0.88
2022-11-06T16:58:59.288Z,1.25
2022-11-06T17:01:26.956Z,2.08
2022-11-06T17:04:01.104Z,1.33
2022-11-06T17:06:30.344Z,1.50
2022-11-06T17:08:58.473Z,1.52
2022-11-06T17:11:25.323Z,1.48
2022-11-06T17:13:53.065Z,1.85
2022-11-06T17:16:23.134Z,1.77
2022-11-06T17:18:50.331Z,1.40
2022-11-06T17:21:25.801Z,1.70
2022-11-06T17:23:53.045Z,1.50
2022-11-06T17:26:29.000Z,1.90
2022-11-06T17:28:56.887Z,1.63
2022-11-06T17:31:24.527Z,1.65
2022-11-06T17:33:51.746Z,2.50
2022-11-06T17:36:25.191Z,2.67
2022-11-06T17:38:53.297Z,3.10
2022-11-06T17:41:32.680Z,3.13
2022-11-06T17:44:10.610Z,1.92
2022-11-06T17:46:40.253Z,2.13
2022-11-06T17:49:09.686Z,2.10
2022-11-06T17:52:15.313Z,2.50
2022-11-06T17:54:42.113Z,2.80
2022-11-06T17:57:09.174Z,1.70
2022-11-06T17:59:35.949Z,2.45
2022-11-06T18:02:03.088Z,1.63
2022-11-06T18:04:34.498Z,1.90
2022-11-06T18:07:01.318Z,1.42
2022-11-06T18:09:29.274Z,2.65
2022-11-06T18:11:56.850Z,1.40
2022-11-06T18:14:25.505Z,1.80
2022-11-06T18:16:53.275Z,1.55
2022-11-06T18:19:23.138Z,1.65
2022-11-06T18:21:50.097Z,1.00
2022-11-06T18:24:17.366Z,1.00
2022-11-06T18:26:44.519Z,1.10
2022-11-06T18:29:12.990Z,1.65
2022-11-06T18:31:40.304Z,1.40
2022-11-06T18:34:07.729Z,1.98
2022-11-06T18:36:36.917Z,2.20
2022-11-06T18:39:07.549Z,1.98
2022-11-06T18:41:34.740Z,1.60
2022-11-06T18:44:02.315Z,2.45
2022-11-06T18:46:30.048Z,2.15
2022-11-06T18:48:58.148Z,2.35
2022-11-06T18:51:35.651Z,2.22
2022-11-06T18:54:06.422Z,1.40
2022-11-06T18:56:36.305Z,1.67
2022-11-06T18:59:04.995Z,2.17
2022-11-06T19:01:34.706Z,1.90
2022-11-06T19:04:03.692Z,2.08
2022-11-06T19:06:30.831Z,2.20
2022-11-06T19:08:57.704Z,2.40
2022-11-06T19:11:24.547Z,2.45
2022-11-06T19:13:51.403Z,2.47
2022-11-06T19:16:19.642Z,1.80
2022-11-06T19:21:32.516Z,2.60
2022-11-06T19:24:04.679Z,2.03
2022-11-06T19:26:34.852Z,2.58
2022-11-06T19:29:02.625Z,2.30
2022-11-06T19:31:30.327Z,3.38
2022-11-06T19:34:01.291Z,2.65
2022-11-06T19:36:29.014Z,2.92
2022-11-06T19:38:58.401Z,4.22
2022-11-06T19:41:26.835Z,3.42
2022-11-06T19:43:53.869Z,3.45
2022-11-06T19:46:25.034Z,2.10
2022-11-06T19:48:54.675Z,2.22
2022-11-06T19:51:21.694Z,1.55
2022-11-06T19:53:53.417Z,3.28
2022-11-06T19:56:21.703Z,2.30
2022-11-06T19:58:50.286Z,1.83
2022-11-06T20:01:17.800Z,2.72
2022-11-06T20:03:44.983Z,2.70
2022-11-06T20:06:12.667Z,2.85
2022-11-06T20:08:39.934Z,2.28
2022-11-06T20:11:14.225Z,3.17
2022-11-06T20:13:42.419Z,1.63
2022-11-06T20:16:11.884Z,1.90
2022-11-06T20:18:39.763Z,1.70
2022-11-06T20:21:09.224Z,1.98
2022-11-06T20:23:36.772Z,2.65
2022-11-06T20:26:04.992Z,1.30
2022-11-06T20:28:32.475Z,2.08
2022-11-06T20:30:59.403Z,2.20
2022-11-06T20:33:26.762Z,1.88
2022-11-06T20:35:53.687Z,2.42
2022-11-06T20:38:20.800Z,2.58
2022-11-06T20:40:47.685Z,2.03
2022-11-06T20:43:15.012Z,1.25
2022-11-06T20:45:42.091Z,2.20
2022-11-06T20:48:09.341Z,2.03
2022-11-06T20:50:36.163Z,1.42
2022-11-06T20:53:03.384Z,1.80
2022-11-06T20:55:30.262Z,1.27
2022-11-06T20:57:57.174Z,1.80
2022-11-06T21:00:24.305Z,0.80
2022-11-06T21:02:51.804Z,1.13
2022-11-06T21:05:20.067Z,1.30
2022-11-06T21:07:46.922Z,1.15
2022-11-06T21:10:14.052Z,1.85
2022-11-06T21:12:40.848Z,0.73
2022-11-06T21:15:08.453Z,1.00
2022-11-06T21:17:35.379Z,1.05
2022-11-06T21:20:02.214Z,1.70
2022-11-06T21:22:29.168Z,1.83
2022-11-06T21:24:56.191Z,1.83
2022-11-06T21:27:23.027Z,1.60
2022-11-06T21:29:49.887Z,1.83
2022-11-06T21:32:16.663Z,1.58
2022-11-06T21:34:43.906Z,1.85
2022-11-06T21:37:10.643Z,1.48
2022-11-06T21:39:37.715Z,1.17
2022-11-06T21:42:06.390Z,1.55
2022-11-06T21:44:33.357Z,2.38
2022-11-06T21:47:00.231Z,2.17
2022-11-06T21:49:27.149Z,2.30
2022-11-06T21:52:14.296Z,1.55
2022-11-06T21:55:00.032Z,1.48
2022-11-06T21:57:27.093Z,1.70
2022-11-06T21:59:53.901Z,1.50
2022-11-06T22:02:20.903Z,1.83
2022-11-06T22:04:47.786Z,1.70
2022-11-06T22:07:14.515Z,1.90
2022-11-06T22:09:41.505Z,2.45
2022-11-06T22:12:08.233Z,2.67
2022-11-06T22:14:35.171Z,5.75
2022-11-06T22:17:02.494Z,1.85
2022-11-06T22:19:29.308Z,1.20
2022-11-06T22:21:56.146Z,1.30
2022-11-06T22:24:23.149Z,1.00
2022-11-06T22:26:49.883Z,2.70
2022-11-06T22:29:16.683Z,1.55
2022-11-06T22:31:43.842Z,1.60
2022-11-06T22:34:12.408Z,1.50
2022-11-06T22:36:39.865Z,1.60
2022-11-06T22:39:09.139Z,1.58
2022-11-06T22:41:36.825Z,1.27
2022-11-06T22:44:04.851Z,1.75
2022-11-06T22:46:32.078Z,1.15
2022-11-06T22:48:59.479Z,1.45
2022-11-06T22:51:29.293Z,1.30
2022-11-06T22:53:56.449Z,1.45
2022-11-06T22:56:24.588Z,3.58
2022-11-06T22:58:56.209Z,1.42
2022-11-06T23:01:26.357Z,1.17
2022-11-06T23:03:57.813Z,1.13
2022-11-06T23:06:25.842Z,1.85
2022-11-06T23:08:53.279Z,1.73
2022-11-06T23:11:21.015Z,1.17
2022-11-06T23:13:47.938Z,1.63
2022-11-06T23:16:17.660Z,2.85
2022-11-06T23:18:44.946Z,2.17
2022-11-06T23:21:17.058Z,1.75
2022-11-06T23:23:45.647Z,1.58
2022-11-06T23:26:16.768Z,1.40
2022-11-06T23:28:44.580Z,1.75
2022-11-06T23:31:12.489Z,1.40
2022-11-06T23:33:39.591Z,4.22
2022-11-06T23:36:14.734Z,1.80
2022-11-06T23:38:42.201Z,1.45
2022-11-06T23:41:35.356Z,2.30
2022-11-06T23:44:03.218Z,1.70
2022-11-06T23:46:32.760Z,1.35
2022-11-06T23:49:00.154Z,1.00
2022-11-06T23:51:27.855Z,1.20
2022-11-06T23:53:54.719Z,3.58
2022-11-06T23:56:21.905Z,2.67
2022-11-06T23:58:48.795Z,3.55
